sensor_id;sensor_type;location;lat;lon;timestamp;P1;P2;P0
74434;PMS7003;62867;52.038;29.256;2023-03-02T00:04:00;8.4;5.4;2.6
74434;PMS7003;62867;52.038;29.256;2023-03-02T00:08:36;6.3;4.5;2.3
74434;PMS7003;62867;52.038;29.256;2023-03-02T00:13:46;6.2;5;2.4
74434;PMS7003;62867;52.038;29.256;2023-03-02T00:18:58;7.6;4.8;2.4
74434;PMS7003;62867;52.038;29.256;2023-03-02T00:24:14;5;3.4;2
74434;PMS7003;62867;52.038;29.256;2023-03-02T00:28:24;7.8;4;1.8
74434;PMS7003;62867;52.038;29.256;2023-03-02T00:33:24;6.6;3.6;2.2
74434;PMS7003;62867;52.038;29.256;2023-03-02T00:38:34;7.2;4;2.2
74434;PMS7003;62867;52.038;29.256;2023-03-02T00:44:00;6;3.6;2.2
74434;PMS7003;62867;52.038;29.256;2023-03-02T00:49:14;5.6;4.8;2.6
74434;PMS7003;62867;52.038;29.256;2023-03-02T00:54:00;7.8;5.4;3
74434;PMS7003;62867;52.038;29.256;2023-03-02T00:58:24;9.8;6.2;2.8
74434;PMS7003;62867;52.038;29.256;2023-03-02T01:03:48;9;6.4;3
74434;PMS7003;62867;52.038;29.256;2023-03-02T01:09:00;7.8;6.2;3
74434;PMS7003;62867;52.038;29.256;2023-03-02T01:14:02;9.8;5.8;2.8
74434;PMS7003;62867;52.038;29.256;2023-03-02T01:19:00;10.8;6.6;2.8
74434;PMS7003;62867;52.038;29.256;2023-03-02T01:23:34;9.2;6.2;3.4
74434;PMS7003;62867;52.038;29.256;2023-03-02T01:28:36;9;6.8;3.6
74434;PMS7003;62867;52.038;29.256;2023-03-02T01:34:00;9.4;5.8;3
74434;PMS7003;62867;52.038;29.256;2023-03-02T01:39:14;8.8;6.4;3.4
74434;PMS7003;62867;52.038;29.256;2023-03-02T01:44:00;9;5.4;2.8
74434;PMS7003;62867;52.038;29.256;2023-03-02T01:48:34;10;6.2;2.8
74434;PMS7003;62867;52.038;29.256;2023-03-02T01:53:24;10;6.6;4
74434;PMS7003;62867;52.038;29.256;2023-03-02T01:59:13;10.2;7.6;4.2
74434;PMS7003;62867;52.038;29.256;2023-03-02T02:04:14;12.2;8.6;4.8
74434;PMS7003;62867;52.038;29.256;2023-03-02T02:09:00;12.6;9;5.6
74434;PMS7003;62867;52.038;29.256;2023-03-02T02:13:24;10.8;9;5
74434;PMS7003;62867;52.038;29.256;2023-03-02T02:19:00;13;9;5.4
74434;PMS7003;62867;52.038;29.256;2023-03-02T02:24:02;13.2;11.4;5.6
74434;PMS7003;62867;52.038;29.256;2023-03-02T02:29:14;14;9.8;5
74434;PMS7003;62867;52.038;29.256;2023-03-02T02:33:59;16;11.4;6.6
74434;PMS7003;62867;52.038;29.256;2023-03-02T02:38:34;16.6;10.8;6
74434;PMS7003;62867;52.038;29.256;2023-03-02T02:43:48;14.8;10.6;6.2
74434;PMS7003;62867;52.038;29.256;2023-03-02T02:49:01;19.2;12.2;6.4
74434;PMS7003;62867;52.038;29.256;2023-03-02T02:54:08;17.8;14;7.4
74434;PMS7003;62867;52.038;29.256;2023-03-02T02:58:58;22;12.8;7.4
74434;PMS7003;62867;52.038;29.256;2023-03-02T03:03:36;16.8;13;6.6
74434;PMS7003;62867;52.038;29.256;2023-03-02T03:08:49;18.6;14.2;7.2
74434;PMS7003;62867;52.038;29.256;2023-03-02T03:14:02;19.5;15;7.8
74434;PMS7003;62867;52.038;29.256;2023-03-02T03:19:16;17.8;14.4;7
74434;PMS7003;62867;52.038;29.256;2023-03-02T03:23:58;21;15.4;8.8
74434;PMS7003;62867;52.038;29.256;2023-03-02T03:28:36;21.8;16.4;8.8
74434;PMS7003;62867;52.038;29.256;2023-03-02T03:33:48;21.6;17.4;10
74434;PMS7003;62867;52.038;29.256;2023-03-02T03:38:46;22;17.2;9.6
74434;PMS7003;62867;52.038;29.256;2023-03-02T03:44:14;28.8;19.2;10.8
74434;PMS7003;62867;52.038;29.256;2023-03-02T03:49:00;24;18.6;11
74434;PMS7003;62867;52.038;29.256;2023-03-02T03:53:24;28.2;22.2;11.8
74434;PMS7003;62867;52.038;29.256;2023-03-02T03:58:46;25.2;19.4;11.2
74434;PMS7003;62867;52.038;29.256;2023-03-02T04:03:58;28.2;20.6;11.6
74434;PMS7003;62867;52.038;29.256;2023-03-02T04:09:14;28.4;22;11.4
74434;PMS7003;62867;52.038;29.256;2023-03-02T04:13:58;29.3;22;12.3
74434;PMS7003;62867;52.038;29.256;2023-03-02T04:18:24;31.2;20.2;10.6
74434;PMS7003;62867;52.038;29.256;2023-03-02T04:23:24;29.8;23.6;13
74434;PMS7003;62867;52.038;29.256;2023-03-02T04:28:34;35.4;24.2;13.4
74434;PMS7003;62867;52.038;29.256;2023-03-02T04:33:50;33.2;22.2;10.8
74434;PMS7003;62867;52.038;29.256;2023-03-02T04:39:12;28.4;21.4;11.4
74434;PMS7003;62867;52.038;29.256;2023-03-02T04:43:24;27.8;22.4;11.8
74434;PMS7003;62867;52.038;29.256;2023-03-02T04:48:48;25;20.4;11.2
74434;PMS7003;62867;52.038;29.256;2023-03-02T04:53:34;26.6;18.2;10.6
74434;PMS7003;62867;52.038;29.256;2023-03-02T04:59:00;28.2;20;11.6
74434;PMS7003;62867;52.038;29.256;2023-03-02T05:04:14;24.2;20;11.6
74434;PMS7003;62867;52.038;29.256;2023-03-02T05:08:24;28.6;22.2;11.8
74434;PMS7003;62867;52.038;29.256;2023-03-02T05:13:48;31.4;23.4;12
74434;PMS7003;62867;52.038;29.256;2023-03-02T05:18:24;34.8;26;12.8
74434;PMS7003;62867;52.038;29.256;2023-03-02T05:24:00;28;21.6;11.6
74434;PMS7003;62867;52.038;29.256;2023-03-02T05:29:14;35.4;25.2;12
74434;PMS7003;62867;52.038;29.256;2023-03-02T05:33:36;41.4;27.4;15.2
74434;PMS7003;62867;52.038;29.256;2023-03-02T05:38:48;42.2;32.4;16
74434;PMS7003;62867;52.038;29.256;2023-03-02T05:43:36;33.8;25.6;13.4
74434;PMS7003;62867;52.038;29.256;2023-03-02T05:48:48;29.4;21.4;12.6
74434;PMS7003;62867;52.038;29.256;2023-03-02T05:54:00;23.4;18.2;10
74434;PMS7003;62867;52.038;29.256;2023-03-02T05:58:34;26.8;21.6;12.2
74434;PMS7003;62867;52.038;29.256;2023-03-02T06:03:46;26.2;19.6;10.4
74434;PMS7003;62867;52.038;29.256;2023-03-02T06:08:24;27.4;18.8;9.6
74434;PMS7003;62867;52.038;29.256;2023-03-02T06:13:58;22;18.2;10
74434;PMS7003;62867;52.038;29.256;2023-03-02T06:19:12;25.3;17.3;8.8
74434;PMS7003;62867;52.038;29.256;2023-03-02T06:23:32;27.2;19.2;11
74434;PMS7003;62867;52.038;29.256;2023-03-02T06:28:46;30.4;23;12
74434;PMS7003;62867;52.038;29.256;2023-03-02T06:33:46;28.6;21.2;12.2
74434;PMS7003;62867;52.038;29.256;2023-03-02T06:39:00;31.4;24.4;12.6
74434;PMS7003;62867;52.038;29.256;2023-03-02T06:44:14;27.4;20.2;11.4
74434;PMS7003;62867;52.038;29.256;2023-03-02T06:48:32;28.6;20.8;11.6
74434;PMS7003;62867;52.038;29.256;2023-03-02T06:53:46;29.4;21;12
74434;PMS7003;62867;52.038;29.256;2023-03-02T06:58:44;28.4;19.6;10.6
74434;PMS7003;62867;52.038;29.256;2023-03-02T07:03:34;31.6;23.4;12.6
74434;PMS7003;62867;52.038;29.256;2023-03-02T07:09:12;34;23.4;13
74434;PMS7003;62867;52.038;29.256;2023-03-02T07:13:36;44.4;31.4;14.6
74434;PMS7003;62867;52.038;29.256;2023-03-02T07:18:46;36;27.8;14
74434;PMS7003;62867;52.038;29.256;2023-03-02T07:23:24;37;27;15
74434;PMS7003;62867;52.038;29.256;2023-03-02T07:28:58;26.6;21.2;11.4
74434;PMS7003;62867;52.038;29.256;2023-03-02T07:34:10;25.8;18.6;10
74434;PMS7003;62867;52.038;29.256;2023-03-02T07:38:32;21.8;17.6;10.2
74434;PMS7003;62867;52.038;29.256;2023-03-02T07:43:32;24.2;19;10.4
74434;PMS7003;62867;52.038;29.256;2023-03-02T07:48:32;23.6;17.4;9.2
74434;PMS7003;62867;52.038;29.256;2023-03-02T07:53:58;25.6;18.6;10.4
74434;PMS7003;62867;52.038;29.256;2023-03-02T07:59:12;24.8;19;10.6
74434;PMS7003;62867;52.038;29.256;2023-03-02T08:03:58;24.2;18.4;10.2
74434;PMS7003;62867;52.038;29.256;2023-03-02T08:08:24;35.8;26;12.8
74434;PMS7003;62867;52.038;29.256;2023-03-02T08:13:34;33.4;26.2;13.2
74434;PMS7003;62867;52.038;29.256;2023-03-02T08:18:58;34.5;26;14.8
74434;PMS7003;62867;52.038;29.256;2023-03-02T08:24:12;35.4;26.4;14.6
74434;PMS7003;62867;52.038;29.256;2023-03-02T08:28:48;27.6;22.8;13.2
74434;PMS7003;62867;52.038;29.256;2023-03-02T08:33:46;32.2;22.8;12
74434;PMS7003;62867;52.038;29.256;2023-03-02T08:38:24;32.6;26;13.4
74434;PMS7003;62867;52.038;29.256;2023-03-02T08:43:58;32.8;23.4;12.8
74434;PMS7003;62867;52.038;29.256;2023-03-02T08:49:12;26.4;21.2;12
74434;PMS7003;62867;52.038;29.256;2023-03-02T08:54:12;27;21.8;12.2
74434;PMS7003;62867;52.038;29.256;2023-03-02T08:58:36;30.2;22.4;11.2
74434;PMS7003;62867;52.038;29.256;2023-03-02T09:03:24;26;20.4;11.6
74434;PMS7003;62867;52.038;29.256;2023-03-02T09:09:00;26.2;21.2;10.8
74434;PMS7003;62867;52.038;29.256;2023-03-02T09:14:14;22;18;9.4
74434;PMS7003;62867;52.038;29.256;2023-03-02T09:18:58;25.8;19.8;11
74434;PMS7003;62867;52.038;29.256;2023-03-02T09:23:36;26;20.2;10.6
74434;PMS7003;62867;52.038;29.256;2023-03-02T09:28:24;25;20.2;11
74434;PMS7003;62867;52.038;29.256;2023-03-02T09:34:00;24.4;19.8;11.4
74434;PMS7003;62867;52.038;29.256;2023-03-02T09:39:12;31.8;22.2;12.2
74434;PMS7003;62867;52.038;29.256;2023-03-02T09:44:01;44.4;31.4;17
74434;PMS7003;62867;52.038;29.256;2023-03-02T09:48:27;36.2;28.8;16.8
74434;PMS7003;62867;52.038;29.256;2023-03-02T09:54:13;31.2;25.2;15.2
74434;PMS7003;62867;52.038;29.256;2023-03-02T09:59:00;28.2;21.8;13.4
74434;PMS7003;62867;52.038;29.256;2023-03-02T10:04:13;26.2;21.4;11.4
74434;PMS7003;62867;52.038;29.256;2023-03-02T10:08:58;23.6;19.2;11
74434;PMS7003;62867;52.038;29.256;2023-03-02T10:13:38;25.2;20.4;11.8
74434;PMS7003;62867;52.038;29.256;2023-03-02T10:19:02;28;22.8;12.3
74434;PMS7003;62867;52.038;29.256;2023-03-02T10:23:57;24.8;19.4;11
74434;PMS7003;62867;52.038;29.256;2023-03-02T10:29:12;31;23;12.8
74434;PMS7003;62867;52.038;29.256;2023-03-02T10:33:56;26.2;22.2;12.8
74434;PMS7003;62867;52.038;29.256;2023-03-02T10:38:24;31.8;25;15.4
74434;PMS7003;62867;52.038;29.256;2023-03-02T10:43:42;30.4;24;13.2
74434;PMS7003;62867;52.038;29.256;2023-03-02T10:48:24;37.8;26.8;16.4
74434;PMS7003;62867;52.038;29.256;2023-03-02T10:54:03;33.2;27.4;15.4
74434;PMS7003;62867;52.038;29.256;2023-03-02T10:58:54;41.2;29.8;15.8
74434;PMS7003;62867;52.038;29.256;2023-03-02T11:03:38;36.2;27;15.6
74434;PMS7003;62867;52.038;29.256;2023-03-02T11:08:38;30.4;24;12.4
74434;PMS7003;62867;52.038;29.256;2023-03-02T11:13:50;29.2;22.6;11.6
74434;PMS7003;62867;52.038;29.256;2023-03-02T11:18:59;35.2;29.6;15.2
74434;PMS7003;62867;52.038;29.256;2023-03-02T11:23:53;39.8;31.5;17.8
74434;PMS7003;62867;52.038;29.256;2023-03-02T11:28:40;41.4;31.8;17.4
74434;PMS7003;62867;52.038;29.256;2023-03-02T11:33:23;49;35.2;20.6
74434;PMS7003;62867;52.038;29.256;2023-03-02T11:38:53;38.4;29;16.6
74434;PMS7003;62867;52.038;29.256;2023-03-02T11:43:42;29.8;23.4;13
74434;PMS7003;62867;52.038;29.256;2023-03-02T11:48:37;31.2;24;12.4
74434;PMS7003;62867;52.038;29.256;2023-03-02T11:53:54;33.4;26.4;15.4
74434;PMS7003;62867;52.038;29.256;2023-03-02T11:58:42;31.8;26.2;14.4
74434;PMS7003;62867;52.038;29.256;2023-03-02T12:03:52;36.4;27.8;14.8
74434;PMS7003;62867;52.038;29.256;2023-03-02T12:08:44;34;25.2;13.8
74434;PMS7003;62867;52.038;29.256;2023-03-02T12:13:33;33.6;25.8;15
74434;PMS7003;62867;52.038;29.256;2023-03-02T12:18:52;36.8;25;14.8
74434;PMS7003;62867;52.038;29.256;2023-03-02T12:23:22;31.3;25.3;14.5
74434;PMS7003;62867;52.038;29.256;2023-03-02T12:28:55;35.2;27.4;15.2
74434;PMS7003;62867;52.038;29.256;2023-03-02T12:33:45;38.2;27.8;15.4
74434;PMS7003;62867;52.038;29.256;2023-03-02T12:38:39;35.8;28;15.2
74434;PMS7003;62867;52.038;29.256;2023-03-02T12:43:55;32.2;25.8;14.8
74434;PMS7003;62867;52.038;29.256;2023-03-02T12:48:23;35.4;27.4;14.4
74434;PMS7003;62867;52.038;29.256;2023-03-02T12:54:00;37.8;29.6;17.2
74434;PMS7003;62867;52.038;29.256;2023-03-02T12:58:47;38;31.2;17.4
74434;PMS7003;62867;52.038;29.256;2023-03-02T13:03:44;41.6;31.4;17.8
74434;PMS7003;62867;52.038;29.256;2023-03-02T13:08:53;36.8;29.2;15.8
74434;PMS7003;62867;52.038;29.256;2023-03-02T13:13:43;38.2;29.8;18
74434;PMS7003;62867;52.038;29.256;2023-03-02T13:18:53;40;29.4;17.8
74434;PMS7003;62867;52.038;29.256;2023-03-02T13:23:44;46.5;35.3;21.3
74434;PMS7003;62867;52.038;29.256;2023-03-02T13:28:38;46.8;35.2;20.2
74434;PMS7003;62867;52.038;29.256;2023-03-02T13:33:50;50;37.4;22
74434;PMS7003;62867;52.038;29.256;2023-03-02T13:38:33;46.8;36;21.6
74434;PMS7003;62867;52.038;29.256;2023-03-02T13:43:50;35.8;28.8;16.6
74434;PMS7003;62867;52.038;29.256;2023-03-02T13:48:51;39.2;30.8;18.2
74434;PMS7003;62867;52.038;29.256;2023-03-02T13:53:22;47.2;33.2;19
74434;PMS7003;62867;52.038;29.256;2023-03-02T13:58:50;41;32.2;19.2
74434;PMS7003;62867;52.038;29.256;2023-03-02T14:03:41;35;27;15.6
74434;PMS7003;62867;52.038;29.256;2023-03-02T14:08:50;37.8;30.4;17
74434;PMS7003;62867;52.038;29.256;2023-03-02T14:13:34;38.4;28.8;17
74434;PMS7003;62867;52.038;29.256;2023-03-02T14:18:24;40.8;31;17.8
74434;PMS7003;62867;52.038;29.256;2023-03-02T14:23:50;46.5;34.8;20
74434;PMS7003;62867;52.038;29.256;2023-03-02T14:28:31;46.6;35.2;21.6
74434;PMS7003;62867;52.038;29.256;2023-03-02T14:33:50;46.6;36.6;20.6
74434;PMS7003;62867;52.038;29.256;2023-03-02T14:38:50;52.2;39.2;22.6
74434;PMS7003;62867;52.038;29.256;2023-03-02T14:43:34;53.2;38.6;22.2
74434;PMS7003;62867;52.038;29.256;2023-03-02T14:48:50;52.8;37.6;21.2
74434;PMS7003;62867;52.038;29.256;2023-03-02T14:53:25;46.2;34.2;18.8
74434;PMS7003;62867;52.038;29.256;2023-03-02T14:58:38;38.4;29.4;15.8
74434;PMS7003;62867;52.038;29.256;2023-03-02T15:03:50;42.8;31.8;17.2
74434;PMS7003;62867;52.038;29.256;2023-03-02T15:08:23;40.2;31.2;16.8
74434;PMS7003;62867;52.038;29.256;2023-03-02T15:13:51;39.4;31.4;16.4
74434;PMS7003;62867;52.038;29.256;2023-03-02T15:18:22;41.6;32.2;18.4
74434;PMS7003;62867;52.038;29.256;2023-03-02T15:23:38;36.5;27.8;16.8
74434;PMS7003;62867;52.038;29.256;2023-03-02T15:28:50;39.4;29;17.4
74434;PMS7003;62867;52.038;29.256;2023-03-02T15:33:34;36.4;28;15.8
74434;PMS7003;62867;52.038;29.256;2023-03-02T15:38:48;34.8;27.2;14.4
74434;PMS7003;62867;52.038;29.256;2023-03-02T15:43:28;36;27;14.8
74434;PMS7003;62867;52.038;29.256;2023-03-02T15:48:28;33.2;23;14
74434;PMS7003;62867;52.038;29.256;2023-03-02T15:54:10;40.2;30.8;16.4
74434;PMS7003;62867;52.038;29.256;2023-03-02T15:58:46;39.2;33;18.2
74434;PMS7003;62867;52.038;29.256;2023-03-02T16:04:02;39.6;30.2;17
74434;PMS7003;62867;52.038;29.256;2023-03-02T16:08:24;36;30.4;16
74434;PMS7003;62867;52.038;29.256;2023-03-02T16:13:52;33.8;25.4;13.4
74434;PMS7003;62867;52.038;29.256;2023-03-02T16:19:16;33.4;25.4;14
74434;PMS7003;62867;52.038;29.256;2023-03-02T16:23:38;33.6;24.2;14.2
74434;PMS7003;62867;52.038;29.256;2023-03-02T16:29:14;31.5;25.8;14.8
74434;PMS7003;62867;52.038;29.256;2023-03-02T16:33:58;29.8;24;13.6
74434;PMS7003;62867;52.038;29.256;2023-03-02T16:39:03;35.2;29.8;16.6
74434;PMS7003;62867;52.038;29.256;2023-03-02T16:44:14;43.4;33.6;18.8
74434;PMS7003;62867;52.038;29.256;2023-03-02T16:48:34;39.8;29;15.6
74434;PMS7003;62867;52.038;29.256;2023-03-02T16:54:16;31.6;24.6;14.2
74434;PMS7003;62867;52.038;29.256;2023-03-02T16:58:46;29.8;22.8;12.4
74434;PMS7003;62867;52.038;29.256;2023-03-02T17:04:02;29.2;23;13.4
74434;PMS7003;62867;52.038;29.256;2023-03-02T17:09:16;32.6;26.8;15.6
74434;PMS7003;62867;52.038;29.256;2023-03-02T17:13:50;32.4;25.6;15.6
74434;PMS7003;62867;52.038;29.256;2023-03-02T17:19:16;36.4;27;15.2
74434;PMS7003;62867;52.038;29.256;2023-03-02T17:23:48;34;26.8;14.6
74434;PMS7003;62867;52.038;29.256;2023-03-02T17:29:04;40.3;27.5;15
74434;PMS7003;62867;52.038;29.256;2023-03-02T17:34:16;36;29.2;16.2
74434;PMS7003;62867;52.038;29.256;2023-03-02T17:38:50;29.2;25.2;14.4
74434;PMS7003;62867;52.038;29.256;2023-03-02T17:44:16;30.8;25;15
74434;PMS7003;62867;52.038;29.256;2023-03-02T17:49:02;37;27.6;15
74434;PMS7003;62867;52.038;29.256;2023-03-02T17:54:04;33.8;25.6;13.2
74434;PMS7003;62867;52.038;29.256;2023-03-02T17:59:16;29.4;24;13.4
74434;PMS7003;62867;52.038;29.256;2023-03-02T18:03:36;35.4;25;13.6
74434;PMS7003;62867;52.038;29.256;2023-03-02T18:09:17;29.4;24;13.6
74434;PMS7003;62867;52.038;29.256;2023-03-02T18:13:34;32.4;27;14.2
74434;PMS7003;62867;52.038;29.256;2023-03-02T18:18:52;42;33.6;17.8
74434;PMS7003;62867;52.038;29.256;2023-03-02T18:24:16;42.2;32.2;17
74434;PMS7003;62867;52.038;29.256;2023-03-02T18:28:24;36.5;30.5;15.8
74434;PMS7003;62867;52.038;29.256;2023-03-02T18:34:16;42.2;31.8;17.4
74434;PMS7003;62867;52.038;29.256;2023-03-02T18:38:27;48.2;35.6;19
74434;PMS7003;62867;52.038;29.256;2023-03-02T18:44:16;48.4;36;20.6
74434;PMS7003;62867;52.038;29.256;2023-03-02T18:48:34;47;35.4;20.2
74434;PMS7003;62867;52.038;29.256;2023-03-02T18:54:02;44.6;34;18.6
74434;PMS7003;62867;52.038;29.256;2023-03-02T18:59:14;36.4;28;16.4
74434;PMS7003;62867;52.038;29.256;2023-03-02T19:03:24;38.4;30.4;15.8
74434;PMS7003;62867;52.038;29.256;2023-03-02T19:09:04;46.4;33;18
74434;PMS7003;62867;52.038;29.256;2023-03-02T19:13:38;46.6;34;18
74434;PMS7003;62867;52.038;29.256;2023-03-02T19:18:48;46.8;32.2;17.6
74434;PMS7003;62867;52.038;29.256;2023-03-02T19:24:16;38;30;16.2
74434;PMS7003;62867;52.038;29.256;2023-03-02T19:28:24;37.8;28.5;15
74434;PMS7003;62867;52.038;29.256;2023-03-02T19:34:04;42.4;29.4;16.4
74434;PMS7003;62867;52.038;29.256;2023-03-02T19:38:34;36.4;29;15.8
74434;PMS7003;62867;52.038;29.256;2023-03-02T19:43:24;35.8;28.8;15.6
74434;PMS7003;62867;52.038;29.256;2023-03-02T19:48:26;37;29;15.4
74434;PMS7003;62867;52.038;29.256;2023-03-02T19:53:38;32;28.8;15.6
74434;PMS7003;62867;52.038;29.256;2023-03-02T19:59:04;35.8;27;15
74434;PMS7003;62867;52.038;29.256;2023-03-02T20:03:24;33;26.2;15
74434;PMS7003;62867;52.038;29.256;2023-03-02T20:08:50;33.4;25.6;14.2
74434;PMS7003;62867;52.038;29.256;2023-03-02T20:14:14;38.6;28.2;14.8
74434;PMS7003;62867;52.038;29.256;2023-03-02T20:18:24;35.4;25.6;14.2
74434;PMS7003;62867;52.038;29.256;2023-03-02T20:24:04;33.4;24.8;13.8
74434;PMS7003;62867;52.038;29.256;2023-03-02T20:28:24;31.5;25.8;13.5
74434;PMS7003;62867;52.038;29.256;2023-03-02T20:33:51;35.6;27.8;14.6
74434;PMS7003;62867;52.038;29.256;2023-03-02T20:39:17;37;28.8;15.6
74434;PMS7003;62867;52.038;29.256;2023-03-02T20:43:36;41.6;30.8;15.2
74434;PMS7003;62867;52.038;29.256;2023-03-02T20:49:05;53.8;36.8;19.4
74434;PMS7003;62867;52.038;29.256;2023-03-02T20:53:24;47.2;34.2;17
74434;PMS7003;62867;52.038;29.256;2023-03-02T20:58:36;50.8;38.4;19.6
74434;PMS7003;62867;52.038;29.256;2023-03-02T21:04:16;40.4;28.6;14.6
74434;PMS7003;62867;52.038;29.256;2023-03-02T21:08:24;45.2;33;16.2
74434;PMS7003;62867;52.038;29.256;2023-03-02T21:14:01;48.4;36.4;19
74434;PMS7003;62867;52.038;29.256;2023-03-02T21:18:44;43.4;32.2;15.8
74434;PMS7003;62867;52.038;29.256;2023-03-02T21:23:48;43.8;30.2;15.4
74434;PMS7003;62867;52.038;29.256;2023-03-02T21:29:12;48;35;17.4
74434;PMS7003;62867;52.038;29.256;2023-03-02T21:33:58;48.3;33.8;18
74434;PMS7003;62867;52.038;29.256;2023-03-02T21:39:03;48.8;36.6;19
74434;PMS7003;62867;52.038;29.256;2023-03-02T21:43:46;48.4;35;18
74434;PMS7003;62867;52.038;29.256;2023-03-02T21:48:36;40.4;30.8;15
74434;PMS7003;62867;52.038;29.256;2023-03-02T21:54:14;34;25.4;14
74434;PMS7003;62867;52.038;29.256;2023-03-02T21:58:36;31.8;24.4;13.8
74434;PMS7003;62867;52.038;29.256;2023-03-02T22:04:00;26.8;22.6;12.2
74434;PMS7003;62867;52.038;29.256;2023-03-02T22:08:24;28;22;12.8
74434;PMS7003;62867;52.038;29.256;2023-03-02T22:13:36;25;20.6;11.6
74434;PMS7003;62867;52.038;29.256;2023-03-02T22:19:22;25.6;22.2;12
74434;PMS7003;62867;52.038;29.256;2023-03-02T22:23:34;30.4;21.6;11.8
74434;PMS7003;62867;52.038;29.256;2023-03-02T22:29:06;29;22.8;13.4
74434;PMS7003;62867;52.038;29.256;2023-03-02T22:33:34;30;22.8;12.5
74434;PMS7003;62867;52.038;29.256;2023-03-02T22:38:48;25.6;18.8;11.2
74434;PMS7003;62867;52.038;29.256;2023-03-02T22:44:14;24.8;18.8;9.8
74434;PMS7003;62867;52.038;29.256;2023-03-02T22:48:25;28.2;21.8;12.2
74434;PMS7003;62867;52.038;29.256;2023-03-02T22:54:00;24.8;19.6;10.8
74434;PMS7003;62867;52.038;29.256;2023-03-02T22:58:28;27.6;18.6;10.6
74434;PMS7003;62867;52.038;29.256;2023-03-02T23:03:49;27.4;19.2;11.6
74434;PMS7003;62867;52.038;29.256;2023-03-02T23:09:15;24;17.6;10
74434;PMS7003;62867;52.038;29.256;2023-03-02T23:13:37;24.8;19;10.2
74434;PMS7003;62867;52.038;29.256;2023-03-02T23:19:03;21.8;18.6;10.4
74434;PMS7003;62867;52.038;29.256;2023-03-02T23:23:34;20.8;16.4;10
74434;PMS7003;62867;52.038;29.256;2023-03-02T23:28:47;27.6;20.2;10.4
74434;PMS7003;62867;52.038;29.256;2023-03-02T23:34:14;24.3;19;9.8
74434;PMS7003;62867;52.038;29.256;2023-03-02T23:38:48;24;17.4;9.8
74434;PMS7003;62867;52.038;29.256;2023-03-02T23:43:48;23;17;10.2
74434;PMS7003;62867;52.038;29.256;2023-03-02T23:49:14;23.2;17.8;9.2
74434;PMS7003;62867;52.038;29.256;2023-03-02T23:53:24;26.8;19.4;10.6
74434;PMS7003;62867;52.038;29.256;2023-03-02T23:59:14;24.4;17;9.4
